createdAt,value
2023-10-23T00:01:37.043Z,14.36
2023-10-23T00:04:40.138Z,14.34
2023-10-23T00:07:43.132Z,14.33
2023-10-23T00:10:46.081Z,14.32
2023-10-23T00:13:49.110Z,14.30
2023-10-23T00:16:52.407Z,14.30
2023-10-23T00:19:54.978Z,14.29
2023-10-23T00:22:57.616Z,14.29
2023-10-23T00:26:00.248Z,14.27
2023-10-23T00:29:04.453Z,14.23
2023-10-23T00:32:07.113Z,14.22
2023-10-23T00:35:09.913Z,14.20
2023-10-23T00:38:13.135Z,14.19
2023-10-23T00:41:15.786Z,14.18
2023-10-23T00:44:18.464Z,14.20
2023-10-23T00:47:22.702Z,14.21
2023-10-23T00:50:25.827Z,14.18
2023-10-23T00:53:30.158Z,14.19
2023-10-23T00:56:33.705Z,14.17
2023-10-23T00:59:36.370Z,14.17
2023-10-23T01:02:39.108Z,14.17
2023-10-23T01:05:42.346Z,14.14
2023-10-23T01:08:46.116Z,14.13
2023-10-23T01:11:48.756Z,14.12
2023-10-23T01:14:51.364Z,14.08
2023-10-23T01:17:54.070Z,14.07
2023-10-23T01:20:56.710Z,14.04
2023-10-23T01:24:02.423Z,14.02
2023-10-23T01:27:05.583Z,14.01
2023-10-23T01:30:09.707Z,13.99
2023-10-23T01:33:14.017Z,13.96
2023-10-23T01:36:16.777Z,14.03
2023-10-23T01:39:19.432Z,13.95
2023-10-23T01:42:22.179Z,13.91
2023-10-23T01:45:24.824Z,13.89
2023-10-23T01:48:28.036Z,13.87
2023-10-23T01:51:31.361Z,13.85
2023-10-23T01:54:34.085Z,13.83
2023-10-23T01:57:37.669Z,13.78
2023-10-23T02:00:40.568Z,13.76
2023-10-23T02:03:43.743Z,13.74
2023-10-23T02:06:46.689Z,13.71
2023-10-23T02:09:49.888Z,13.71
2023-10-23T02:12:52.385Z,13.69
2023-10-23T02:15:55.416Z,13.66
2023-10-23T02:18:57.836Z,13.63
2023-10-23T02:22:00.875Z,13.65
2023-10-23T02:25:03.495Z,13.69
2023-10-23T02:28:06.421Z,13.65
2023-10-23T02:31:08.822Z,13.59
2023-10-23T02:34:12.149Z,13.59
2023-10-23T02:37:14.612Z,13.56
2023-10-23T02:40:17.562Z,13.56
2023-10-23T02:43:20.248Z,13.51
2023-10-23T02:46:23.564Z,13.60
2023-10-23T02:49:26.151Z,13.53
2023-10-23T02:52:29.231Z,13.52
2023-10-23T02:55:31.609Z,13.55
2023-10-23T02:58:36.901Z,13.58
2023-10-23T03:01:39.529Z,13.61
2023-10-23T03:04:42.595Z,13.60
2023-10-23T03:07:45.121Z,13.55
2023-10-23T03:10:48.215Z,13.57
2023-10-23T03:13:51.613Z,13.59
2023-10-23T03:16:54.627Z,13.62
2023-10-23T03:19:57.216Z,13.58
2023-10-23T03:23:00.156Z,13.55
2023-10-23T03:26:03.010Z,13.55
2023-10-23T03:29:06.446Z,13.55
2023-10-23T03:32:09.910Z,13.50
2023-10-23T03:35:14.170Z,13.52
2023-10-23T03:38:16.997Z,13.51
2023-10-23T03:41:19.831Z,13.51
2023-10-23T03:44:22.306Z,13.48
2023-10-23T03:47:25.263Z,13.47
2023-10-23T03:50:27.653Z,13.46
2023-10-23T03:53:30.934Z,13.50
2023-10-23T03:56:34.116Z,13.58
2023-10-23T03:59:37.147Z,13.55
2023-10-23T04:02:39.585Z,13.51
2023-10-23T04:05:42.690Z,13.44
2023-10-23T04:08:45.188Z,13.48
2023-10-23T04:11:48.119Z,13.48
2023-10-23T04:14:50.465Z,13.52
2023-10-23T04:17:53.379Z,13.41
2023-10-23T04:21:03.572Z,13.34
2023-10-23T04:24:12.585Z,13.36
2023-10-23T04:27:14.984Z,13.28
2023-10-23T04:30:18.877Z,13.28
2023-10-23T04:33:23.116Z,13.29
2023-10-23T04:36:26.338Z,13.36
2023-10-23T04:39:28.948Z,13.26
2023-10-23T04:42:31.890Z,13.20
2023-10-23T04:45:36.318Z,13.19
2023-10-23T04:48:39.380Z,13.19
2023-10-23T04:51:41.902Z,13.15
2023-10-23T04:54:44.980Z,13.09
2023-10-23T04:57:47.438Z,13.12
2023-10-23T05:00:51.327Z,13.12
2023-10-23T05:03:53.808Z,13.11
2023-10-23T05:06:57.060Z,13.19
2023-10-23T05:09:59.473Z,13.27
2023-10-23T05:13:04.383Z,13.17
2023-10-23T05:16:08.777Z,13.26
2023-10-23T05:19:12.124Z,13.21
2023-10-23T05:22:14.623Z,13.26
2023-10-23T05:25:17.711Z,13.32
2023-10-23T05:28:20.036Z,13.42
2023-10-23T05:31:23.053Z,13.50
2023-10-23T05:34:25.770Z,13.43
2023-10-23T05:37:29.389Z,13.56
2023-10-23T05:40:31.799Z,13.58
2023-10-23T05:43:34.766Z,13.63
2023-10-23T05:46:37.303Z,13.61
2023-10-23T05:49:40.422Z,13.61
2023-10-23T05:52:42.794Z,13.55
2023-10-23T05:55:45.753Z,13.60
2023-10-23T05:58:48.567Z,13.67
2023-10-23T06:01:51.510Z,13.73
2023-10-23T06:04:57.310Z,13.83
2023-10-23T06:08:00.067Z,13.83
2023-10-23T06:11:03.164Z,13.86
2023-10-23T06:14:05.954Z,13.93
2023-10-23T06:17:08.985Z,14.05
2023-10-23T06:20:11.854Z,14.09
2023-10-23T06:23:14.769Z,14.17
2023-10-23T06:26:17.392Z,14.13
2023-10-23T06:29:20.127Z,14.27
2023-10-23T06:32:22.742Z,14.36
2023-10-23T06:35:25.584Z,14.40
2023-10-23T06:38:28.497Z,14.45
2023-10-23T06:41:31.681Z,14.54
2023-10-23T06:44:34.317Z,14.51
2023-10-23T06:47:40.138Z,14.49
2023-10-23T06:50:47.609Z,14.55
2023-10-23T06:53:50.404Z,14.62
2023-10-23T06:56:53.163Z,14.88
2023-10-23T06:59:56.306Z,15.09
2023-10-23T07:02:59.016Z,15.27
2023-10-23T07:06:06.354Z,15.44
2023-10-23T07:09:09.005Z,15.43
2023-10-23T07:12:11.742Z,15.55
2023-10-23T07:15:14.818Z,15.84
2023-10-23T07:18:18.768Z,16.11
2023-10-23T07:21:24.785Z,16.33
2023-10-23T07:24:27.672Z,16.77
2023-10-23T07:27:31.451Z,17.21
2023-10-23T07:30:36.008Z,19.12
2023-10-23T07:33:38.752Z,20.27
2023-10-23T07:36:41.462Z,20.85
2023-10-23T07:39:48.577Z,20.93
2023-10-23T07:42:53.633Z,21.00
2023-10-23T07:46:08.106Z,21.90
2023-10-23T07:49:11.116Z,23.94
2023-10-23T07:52:13.826Z,25.04
2023-10-23T07:55:16.513Z,27.08
2023-10-23T07:58:19.884Z,29.48
2023-10-23T08:01:23.532Z,30.97
2023-10-23T08:04:26.578Z,30.70
2023-10-23T08:07:29.540Z,30.24
2023-10-23T08:10:32.553Z,30.47
2023-10-23T08:13:35.020Z,30.46
2023-10-23T08:16:38.121Z,29.49
2023-10-23T08:19:41.204Z,29.29
2023-10-23T08:22:44.550Z,30.92
2023-10-23T08:25:47.879Z,33.60
2023-10-23T08:31:56.461Z,39.65
2023-10-23T08:34:59.583Z,41.92
2023-10-23T08:38:02.111Z,43.66
2023-10-23T08:41:05.216Z,44.69
2023-10-23T08:44:07.607Z,45.60
2023-10-23T08:47:10.619Z,46.08
2023-10-23T08:50:13.069Z,46.08
2023-10-23T08:53:16.878Z,46.94
2023-10-23T08:56:20.319Z,47.71
2023-10-23T08:59:23.407Z,47.63
2023-10-23T09:02:26.082Z,42.84
2023-10-23T09:05:29.138Z,38.94
2023-10-23T09:08:34.652Z,38.15
2023-10-23T09:11:42.887Z,40.03
2023-10-23T09:14:45.409Z,42.47
2023-10-23T09:17:50.893Z,44.15
2023-10-23T09:20:53.349Z,45.03
2023-10-23T09:23:57.277Z,43.91
2023-10-23T09:26:59.875Z,42.88
2023-10-23T09:30:04.390Z,41.58
2023-10-23T09:33:07.319Z,39.96
2023-10-23T09:36:10.426Z,37.79
2023-10-23T09:39:12.833Z,35.73
2023-10-23T09:42:15.707Z,34.13
2023-10-23T09:45:18.175Z,32.71
2023-10-23T09:48:21.497Z,31.94
2023-10-23T09:51:27.082Z,31.36
2023-10-23T09:54:31.411Z,31.03
2023-10-23T09:57:38.160Z,30.72
2023-10-23T10:00:43.218Z,30.35
2023-10-23T10:03:46.989Z,29.72
2023-10-23T10:06:55.459Z,29.43
2023-10-23T10:09:59.750Z,29.36
2023-10-23T10:13:03.879Z,29.18
2023-10-23T10:16:07.122Z,29.01
2023-10-23T10:19:10.051Z,28.61
2023-10-23T10:22:16.179Z,28.10
2023-10-23T10:25:19.730Z,27.63
2023-10-23T10:28:26.993Z,27.46
2023-10-23T10:31:30.051Z,27.37
2023-10-23T10:34:37.611Z,27.25
2023-10-23T10:37:41.243Z,26.96
2023-10-23T10:41:02.651Z,26.43
2023-10-23T10:44:10.703Z,26.30
2023-10-23T10:47:14.060Z,26.30
2023-10-23T10:50:34.124Z,26.41
2023-10-23T10:53:41.533Z,26.50
2023-10-23T10:56:45.266Z,26.70
2023-10-23T10:59:48.263Z,26.83
2023-10-23T11:02:51.951Z,26.88
2023-10-23T11:05:55.853Z,26.98
2023-10-23T11:09:00.159Z,27.14
2023-10-23T11:12:04.016Z,27.02
2023-10-23T11:15:08.147Z,26.96
2023-10-23T11:18:10.972Z,26.53
2023-10-23T11:21:13.554Z,26.14
2023-10-23T11:24:16.170Z,26.15
2023-10-23T11:27:19.181Z,26.31
2023-10-23T11:30:25.408Z,26.19
2023-10-23T11:33:28.195Z,26.16
2023-10-23T11:36:34.119Z,25.99
2023-10-23T11:39:38.459Z,26.00
2023-10-23T11:42:48.683Z,26.02
2023-10-23T11:45:54.071Z,26.14
2023-10-23T11:48:56.814Z,26.06
2023-10-23T11:52:00.277Z,26.02
2023-10-23T11:55:05.277Z,26.22
2023-10-23T11:58:08.242Z,26.21
2023-10-23T12:01:10.985Z,26.14
2023-10-23T12:04:14.502Z,26.03
2023-10-23T12:07:16.985Z,25.95
2023-10-23T12:10:20.717Z,25.89
2023-10-23T12:13:23.981Z,25.87
2023-10-23T12:16:27.734Z,26.14
2023-10-23T12:19:30.256Z,25.85
2023-10-23T12:22:33.481Z,25.65
2023-10-23T12:25:35.893Z,25.65
2023-10-23T12:28:39.229Z,25.54
2023-10-23T12:32:01.554Z,25.50
2023-10-23T12:35:05.650Z,25.37
2023-10-23T12:38:08.162Z,25.39
2023-10-23T12:41:11.157Z,25.46
2023-10-23T12:44:13.508Z,25.41
2023-10-23T12:47:16.765Z,25.30
2023-10-23T12:50:19.181Z,25.57
2023-10-23T12:53:22.209Z,26.22
2023-10-23T12:56:24.635Z,27.14
2023-10-23T12:59:27.542Z,28.11
2023-10-23T13:02:30.059Z,29.43
2023-10-23T13:05:33.415Z,29.63
2023-10-23T13:08:35.746Z,28.47
2023-10-23T13:11:38.948Z,27.86
2023-10-23T13:14:41.379Z,27.37
2023-10-23T13:17:44.500Z,26.80
2023-10-23T13:21:30.353Z,26.26
2023-10-23T13:24:12.702Z,25.74
2023-10-23T13:27:16.935Z,25.04
2023-10-23T13:30:28.793Z,24.76
2023-10-23T13:33:33.175Z,24.13
2023-10-23T13:36:36.082Z,23.67
2023-10-23T13:39:38.525Z,23.35
2023-10-23T13:42:51.761Z,23.14
2023-10-23T13:45:54.243Z,22.81
2023-10-23T13:48:57.241Z,22.72
2023-10-23T13:52:00.112Z,22.66
2023-10-23T13:55:06.356Z,22.52
2023-10-23T13:58:11.944Z,22.58
2023-10-23T14:01:15.551Z,22.36
2023-10-23T14:04:19.117Z,22.21
2023-10-23T14:07:21.917Z,22.12
2023-10-23T14:10:27.813Z,22.04
2023-10-23T14:13:30.603Z,22.11
2023-10-23T14:16:33.502Z,21.93
2023-10-23T14:19:46.416Z,21.67
2023-10-23T14:22:50.573Z,21.36
2023-10-23T14:25:54.365Z,21.22
2023-10-23T14:28:57.261Z,21.12
2023-10-23T14:31:59.966Z,21.02
2023-10-23T14:35:02.709Z,20.92
2023-10-23T14:38:05.801Z,20.86
2023-10-23T14:41:08.533Z,20.82
2023-10-23T14:44:11.408Z,20.78
2023-10-23T14:47:14.256Z,20.76
2023-10-23T14:50:17.191Z,20.71
2023-10-23T14:53:20.044Z,20.74
2023-10-23T14:56:23.594Z,20.61
2023-10-23T14:59:26.424Z,20.53
2023-10-23T15:02:29.470Z,20.51
2023-10-23T15:05:32.365Z,20.37
2023-10-23T15:08:35.059Z,20.35
2023-10-23T15:11:37.772Z,20.27
2023-10-23T15:14:40.497Z,20.19
2023-10-23T15:17:43.504Z,20.13
2023-10-23T15:20:46.251Z,20.11
2023-10-23T15:23:51.390Z,20.04
2023-10-23T15:26:54.054Z,19.99
2023-10-23T15:29:56.922Z,19.95
2023-10-23T15:32:59.646Z,19.89
2023-10-23T15:36:03.032Z,19.89
2023-10-23T15:39:07.208Z,19.86
2023-10-23T15:42:09.959Z,19.84
2023-10-23T15:45:15.637Z,19.82
2023-10-23T15:48:20.477Z,19.76
2023-10-23T15:51:23.148Z,19.71
2023-10-23T15:54:25.932Z,19.64
2023-10-23T15:57:28.804Z,19.57
2023-10-23T16:00:31.724Z,19.49
2023-10-23T16:03:35.480Z,19.46
2023-10-23T16:06:38.216Z,19.42
2023-10-23T16:09:41.823Z,19.39
2023-10-23T16:12:44.364Z,19.35
2023-10-23T16:15:47.541Z,19.33
2023-10-23T16:18:50.706Z,19.31
2023-10-23T16:21:53.807Z,19.29
2023-10-23T16:24:56.609Z,19.23
2023-10-23T16:28:00.164Z,19.21
2023-10-23T16:31:02.641Z,19.18
2023-10-23T16:34:05.912Z,19.14
2023-10-23T16:37:08.393Z,19.12
2023-10-23T16:40:11.990Z,19.09
2023-10-23T16:43:19.152Z,19.06
2023-10-23T16:46:22.331Z,19.04
2023-10-23T16:49:25.223Z,19.00
2023-10-23T16:52:29.187Z,18.95
2023-10-23T16:55:31.594Z,18.93
2023-10-23T16:58:34.737Z,18.88
2023-10-23T17:01:39.358Z,18.87
2023-10-23T17:04:42.434Z,18.80
2023-10-23T17:07:46.203Z,18.79
2023-10-23T17:10:49.390Z,18.78
2023-10-23T17:13:53.679Z,18.73
2023-10-23T17:16:56.672Z,18.67
2023-10-23T17:19:59.147Z,18.62
2023-10-23T17:23:04.618Z,18.60
2023-10-23T17:26:06.967Z,18.55
2023-10-23T17:29:10.963Z,18.46
2023-10-23T17:32:14.131Z,18.42
2023-10-23T17:35:17.130Z,18.39
2023-10-23T17:38:19.856Z,18.38
2023-10-23T17:41:23.159Z,18.32
2023-10-23T17:44:25.691Z,18.26
2023-10-23T17:47:30.758Z,18.22
2023-10-23T17:50:34.188Z,18.17
2023-10-23T17:53:41.966Z,18.10
2023-10-23T17:56:52.388Z,18.06
2023-10-23T17:59:55.349Z,17.99
2023-10-23T18:02:58.160Z,17.93
2023-10-23T18:06:03.987Z,17.90
2023-10-23T18:09:06.616Z,17.86
2023-10-23T18:12:15.820Z,17.82
2023-10-23T18:15:24.792Z,17.81
2023-10-23T18:18:27.705Z,17.81
2023-10-23T18:21:30.063Z,17.80
2023-10-23T18:24:33.161Z,17.80
2023-10-23T18:27:35.620Z,17.78
2023-10-23T18:30:38.584Z,17.76
2023-10-23T18:33:40.975Z,17.75
2023-10-23T18:36:45.453Z,17.74
2023-10-23T18:39:47.868Z,17.72
2023-10-23T18:42:55.863Z,17.70
2023-10-23T18:45:58.563Z,17.70
2023-10-23T18:49:03.159Z,17.72
2023-10-23T18:52:05.743Z,17.70
2023-10-23T18:55:08.793Z,17.68
2023-10-23T18:58:11.222Z,17.67
2023-10-23T19:01:16.111Z,17.62
2023-10-23T19:04:18.733Z,17.57
2023-10-23T19:07:22.552Z,17.53
2023-10-23T19:10:24.954Z,17.49
2023-10-23T19:13:28.021Z,17.48
2023-10-23T19:16:30.485Z,17.46
2023-10-23T19:19:33.610Z,17.47
2023-10-23T19:22:37.160Z,17.46
2023-10-23T19:25:40.341Z,17.41
2023-10-23T19:28:42.673Z,17.38
2023-10-23T19:31:46.970Z,17.35
2023-10-23T19:34:51.992Z,17.29
2023-10-23T19:37:54.952Z,17.26
2023-10-23T19:41:01.807Z,17.23
2023-10-23T19:44:05.075Z,17.20
2023-10-23T19:47:07.775Z,17.17
2023-10-23T19:50:11.095Z,17.13
2023-10-23T19:53:17.030Z,17.10
2023-10-23T19:56:28.860Z,17.07
2023-10-23T19:59:32.891Z,17.03
2023-10-23T20:02:35.953Z,17.02
2023-10-23T20:05:38.660Z,16.99
2023-10-23T20:08:41.434Z,16.95
2023-10-23T20:11:44.092Z,16.89
2023-10-23T20:14:46.738Z,16.84
2023-10-23T20:17:52.740Z,16.83
2023-10-23T20:20:58.438Z,16.79
2023-10-23T20:24:01.242Z,16.75
2023-10-23T20:27:04.004Z,16.71
2023-10-23T20:30:06.869Z,16.70
2023-10-23T20:33:12.196Z,16.69
2023-10-23T20:36:14.904Z,16.66
2023-10-23T20:39:17.735Z,16.63
2023-10-23T20:42:20.479Z,16.60
2023-10-23T20:45:23.201Z,16.59
2023-10-23T20:48:26.577Z,16.57
2023-10-23T20:51:29.451Z,16.55
2023-10-23T20:54:32.130Z,16.60
2023-10-23T20:57:34.790Z,16.59
2023-10-23T21:00:37.598Z,16.56
2023-10-23T21:03:40.487Z,16.55
2023-10-23T21:06:43.146Z,16.56
2023-10-23T21:09:46.003Z,16.55
2023-10-23T21:12:48.666Z,16.57
2023-10-23T21:15:51.437Z,16.56
2023-10-23T21:18:56.174Z,16.56
2023-10-23T21:22:00.485Z,16.51
2023-10-23T21:25:04.704Z,16.52
2023-10-23T21:28:07.564Z,16.47
2023-10-23T21:31:12.096Z,16.43
2023-10-23T21:34:15.703Z,16.43
2023-10-23T21:37:18.401Z,16.46
2023-10-23T21:40:21.013Z,16.41
2023-10-23T21:43:23.730Z,16.40
2023-10-23T21:46:26.479Z,16.41
2023-10-23T21:49:29.196Z,16.41
2023-10-23T21:52:32.114Z,16.41
2023-10-23T21:55:36.333Z,16.38
2023-10-23T21:59:06.494Z,16.34
2023-10-23T22:02:01.968Z,16.32
2023-10-23T22:05:05.173Z,16.30
2023-10-23T22:08:07.746Z,16.27
2023-10-23T22:11:11.238Z,16.26
2023-10-23T22:14:13.999Z,16.25
2023-10-23T22:17:17.099Z,16.28
2023-10-23T22:20:19.696Z,16.19
2023-10-23T22:23:23.034Z,16.16
2023-10-23T22:26:25.388Z,16.10
2023-10-23T22:29:28.338Z,16.09
2023-10-23T22:32:30.938Z,16.08
2023-10-23T22:35:34.163Z,16.07
2023-10-23T22:38:36.531Z,16.08
2023-10-23T22:41:41.162Z,16.04
2023-10-23T22:44:43.621Z,16.03
2023-10-23T22:47:46.577Z,16.02
2023-10-23T22:50:51.524Z,16.01
2023-10-23T22:53:54.563Z,15.98
2023-10-23T22:56:59.542Z,16.02
2023-10-23T23:00:04.496Z,15.99
2023-10-23T23:03:07.078Z,15.89
2023-10-23T23:06:10.912Z,15.85
2023-10-23T23:09:13.350Z,15.80
2023-10-23T23:12:16.498Z,15.80
2023-10-23T23:15:19.292Z,15.81
2023-10-23T23:18:22.788Z,15.75
2023-10-23T23:21:26.490Z,15.69
2023-10-23T23:24:30.906Z,15.64
2023-10-23T23:27:35.187Z,15.64
2023-10-23T23:30:39.210Z,15.64
2023-10-23T23:33:41.572Z,15.59
2023-10-23T23:36:44.519Z,15.59
2023-10-23T23:39:47.665Z,15.59
2023-10-23T23:42:50.291Z,15.53
2023-10-23T23:45:53.450Z,15.51
2023-10-23T23:48:56.141Z,15.51
2023-10-23T23:51:58.753Z,15.47
2023-10-23T23:55:01.553Z,15.45
2023-10-23T23:58:04.310Z,15.43
